Terminal Aerodrome Forecast
Issued by NWS

Home | Current Version | Previous Version | Text Only | Print | Product List | Glossary On
Versions: 1 2 3 4 5 6 7 8 9 10 11 12 13 14 15 16 17 18 19 20 21 22 23 24 25 26 27 28 29 30 31 32 33 34 35
000
FTUS41 KGYX 301500 AAB
TAFRKD
TAF AMD
KRKD 301550Z 3016/3112 10006KT 5SM BR OVC003
      TEMPO 3017/3019 P6SM NSW SCT003
     FM301900 12008KT P6SM FEW050
     FM310100 VRB04KT 5SM BR SCT002 SCT250
     FM310400 24004KT 1/2SM FG OVC002
      AMD LTD TO CLD VIS AND WIND=

USA.gov is the U.S. government's official web portal to all federal, state and local government web resources and services.